Maljamar, NM (88264)

11:53 AM MDT on July 29, 2016 (GMT -0600)
Derrick Ranch | | Change Station

Elev 4072 ft 32.93 °N, 103.52 °W | Updated 34 seconds ago

Clear
Clear
87.7 °F
Feels Like 87 °F
N
9.0
Wind Variable Wind from East
Gusts 16.0 mph

Today
High -- | Low -- °F
--% Chance of Precip.
Yesterday
High -- | Low -- °F
Precip. -- in
Pressure 30.15 in
Visibility 10.0 miles
Clouds Clear
Heat Index 87 °F
Dew Point 57 °F
Humidity 36%
Rainfall 0.00 in
Snow Depth Not available.
6:07 AM 7:55 PM
Waning Crescent, 20% visible
METAR KHOB 291650Z 11010G16KT 10SM SKC 30/14 A3015
Pressure 30.15 in
Visibility 10.0 miles
Clouds Clear
Heat Index 87 °F
Dew Point 57 °F
Humidity 36%
Rainfall 0.00 in
Snow Depth Not available.
6:07 AM 7:55 PM
Waning Crescent, 20% visible
METAR KHOB 291650Z 11010G16KT 10SM SKC 30/14 A3015

10-Day Weather Forecast

Almanac

Astronomy

Jul. 29, 2016 Rise Set
Actual Time
Civil Twilight
Nautical Twilight
Astronomical Twilight
Moon
Length of Visible Light
Length of Day
Tomorrow will be .
, % of the Moon is Illuminated

Today's Extremes

State Highs State Lows

Community

WunderPhotos

Upload Photos

1,928,382 photos uploaded!

WunderBlog® & News

Nearby

Air Quality

  Air Quality AQ Index Pollutant
Not available.

Snow Depth

Station Depth Elevation

Earthquake Activity

City Distance Mag. Time & Date
Minimum magnitude displayed is 2.5.

Coastal Water Temperatures

Place Temperature

Stations

Nearby Weather Stations

Station Location Temp. Windchill Dew Point Humidity Wind Precip. Elev Updated Type
                   

Watches & Warnings

There are currently no watches in effect.